Time;durP1;ratioP1;P1;durP2;ratioP2;P2;SDS_P1;SDS_P2;PMS_P1;PMS_P2;Temp;Humidity;BMP_temperature;BMP_pressure;BME280_temperature;BME280_humidity;BME280_pressure;Samples;Min_cycle;Max_cycle;Signal;HPM_P1;HPM_P2
2021/12/08 00:00:46;;;;;;;4.22;3.33;;;-3.40;99.90;;;;;;6132701;23;20014;-84
2021/12/08 00:03:14;;;;;;;5.68;4.15;;;-3.50;99.90;;;;;;6072291;23;20022;-84
2021/12/08 00:05:44;;;;;;;3.80;3.50;;;-3.50;99.90;;;;;;6079919;23;20431;-83
2021/12/08 00:08:15;;;;;;;2.90;2.70;;;-3.60;99.90;;;;;;6094197;23;20026;-84
2021/12/08 00:13:27;;;;;;;3.83;3.53;;;-3.70;99.90;;;;;;6096322;23;20040;-84
2021/12/08 00:15:59;;;;;;;1.95;1.85;;;-3.60;99.90;;;;;;6044640;23;20033;-83
2021/12/08 00:18:29;;;;;;;3.80;3.55;;;-3.60;99.90;;;;;;6102877;23;20022;-83
2021/12/08 00:20:59;;;;;;;4.82;4.53;;;-3.60;99.90;;;;;;6022653;23;20025;-83
2021/12/08 00:23:28;;;;;;;4.40;3.92;;;-3.60;99.90;;;;;;6098647;23;20030;-83
2021/12/08 00:25:57;;;;;;;3.90;3.53;;;-3.60;99.90;;;;;;6044787;23;20763;-84
2021/12/08 00:28:25;;;;;;;3.65;3.30;;;-3.70;99.90;;;;;;6079597;23;20026;-84
2021/12/08 00:30:56;;;;;;;4.03;3.83;;;-3.70;99.90;;;;;;6100772;23;20026;-83
2021/12/08 00:33:27;;;;;;;3.00;2.70;;;-3.70;99.90;;;;;;6079998;23;20018;-83
2021/12/08 00:35:58;;;;;;;3.65;3.35;;;-3.80;99.90;;;;;;6022254;23;20328;-83
2021/12/08 00:38:27;;;;;;;3.15;2.95;;;-4.00;99.90;;;;;;6076831;23;20022;-83
2021/12/08 00:40:55;;;;;;;3.40;2.95;;;-4.00;99.90;;;;;;6045022;23;20022;-83
2021/12/08 00:43:23;;;;;;;2.03;1.95;;;-4.00;99.90;;;;;;6046024;23;20026;-83
2021/12/08 00:45:52;;;;;;;8.40;4.45;;;-3.90;99.90;;;;;;6069534;23;20022;-83
2021/12/08 00:48:21;;;;;;;6.97;3.20;;;-3.80;99.90;;;;;;6045371;23;20496;-84
2021/12/08 00:50:50;;;;;;;4.90;4.60;;;-3.60;99.90;;;;;;6044771;23;20458;-83
2021/12/08 00:53:18;;;;;;;4.03;3.25;;;-3.80;99.90;;;;;;6046219;23;20023;-83
2021/12/08 00:55:46;;;;;;;3.30;3.05;;;-3.80;99.90;;;;;;6068163;23;20019;-84
2021/12/08 00:58:16;;;;;;;3.05;2.85;;;-3.80;99.90;;;;;;6044771;23;20018;-83
2021/12/08 01:00:51;;;;;;;2.00;1.90;;;-3.80;99.90;;;;;;6069929;23;20022;-83
2021/12/08 01:03:20;;;;;;;2.97;2.65;;;-3.90;99.90;;;;;;6096969;23;20030;-83
2021/12/08 01:05:56;;;;;;;2.67;2.47;;;-3.90;99.90;;;;;;6044456;23;20030;-83
2021/12/08 01:08:25;;;;;;;3.85;3.55;;;-3.90;99.90;;;;;;6068833;23;20454;-83
2021/12/08 01:10:59;;;;;;;3.50;3.20;;;-3.80;99.90;;;;;;6098928;23;20018;-83
2021/12/08 01:13:28;;;;;;;2.05;1.95;;;-3.90;99.90;;;;;;6069581;23;20347;-83
2021/12/08 01:15:58;;;;;;;4.07;2.88;;;-3.90;99.90;;;;;;6095730;23;20339;-83
2021/12/08 01:18:28;;;;;;;2.97;2.70;;;-3.90;99.90;;;;;;6102076;23;20477;-83
2021/12/08 01:20:58;;;;;;;2.38;2.25;;;-3.90;99.90;;;;;;6102928;23;20029;-83
2021/12/08 01:23:26;;;;;;;4.95;4.13;;;-4.00;99.90;;;;;;6068610;23;20030;-84
2021/12/08 01:25:55;;;;;;;9.13;3.70;;;-4.00;99.90;;;;;;6044359;23;20023;-83
2021/12/08 01:28:24;;;;;;;4.70;3.03;;;-4.00;99.90;;;;;;6103689;23;20015;-84
2021/12/08 01:30:54;;;;;;;5.85;2.63;;;-4.10;99.90;;;;;;6068543;23;20485;-83
2021/12/08 01:33:27;;;;;;;6.30;3.05;;;-4.00;99.90;;;;;;6079760;23;20019;-84
2021/12/08 01:35:55;;;;;;;3.17;2.92;;;-3.90;99.90;;;;;;6021447;23;20025;-83
2021/12/08 01:38:24;;;;;;;2.80;2.60;;;-3.90;99.90;;;;;;6067936;23;20374;-83
2021/12/08 01:40:52;;;;;;;3.72;2.33;;;-4.00;99.90;;;;;;6044854;23;20022;-83
2021/12/08 01:43:29;;;;;;;2.83;2.63;;;-3.90;99.90;;;;;;6068509;23;20037;-83
2021/12/08 01:46:05;;;;;;;3.08;2.55;;;-4.00;99.90;;;;;;6045469;23;20022;-83
2021/12/08 01:48:38;;;;;;;2.88;2.65;;;-4.00;99.90;;;;;;6021712;23;20327;-83
2021/12/08 01:51:17;;;;;;;3.42;2.45;;;-4.00;99.90;;;;;;6087708;23;20019;-83
2021/12/08 01:53:50;;;;;;;3.40;3.10;;;-4.10;99.90;;;;;;6104252;23;20014;-83
2021/12/08 01:56:21;;;;;;;4.30;3.97;;;-4.10;99.90;;;;;;6067251;23;20030;-84
2021/12/08 01:58:50;;;;;;;5.57;3.10;;;-4.10;99.90;;;;;;6020997;23;20421;-83
2021/12/08 02:01:24;;;;;;;4.07;3.33;;;-4.10;99.90;;;;;;6044770;23;20323;-83
2021/12/08 02:03:55;;;;;;;4.22;3.85;;;-4.10;99.90;;;;;;6041287;23;20600;-83
2021/12/08 02:06:23;;;;;;;3.50;3.20;;;-4.10;99.90;;;;;;6039604;23;20030;-83
2021/12/08 02:08:52;;;;;;;7.30;3.03;;;-4.10;99.90;;;;;;6040571;23;20019;-83
2021/12/08 02:11:21;;;;;;;3.08;2.78;;;-4.10;99.90;;;;;;6068518;23;20027;-83
2021/12/08 02:13:52;;;;;;;5.55;5.05;;;-4.10;99.90;;;;;;6075624;23;20011;-83
2021/12/08 02:16:20;;;;;;;2.35;2.15;;;-4.10;99.90;;;;;;6039841;23;20022;-83
2021/12/08 02:18:52;;;;;;;2.63;2.42;;;-4.00;99.90;;;;;;6093220;23;20031;-84
2021/12/08 02:21:28;;;;;;;2.10;2.00;;;-4.10;99.90;;;;;;6074872;23;20014;-83
2021/12/08 02:23:59;;;;;;;12.30;2.67;;;-4.10;99.90;;;;;;6066556;23;20533;-83
2021/12/08 02:26:28;;;;;;;9.80;2.93;;;-4.00;99.90;;;;;;6072224;23;20340;-83
2021/12/08 02:28:57;;;;;;;3.58;3.05;;;-4.00;99.90;;;;;;6016778;23;20469;-83
2021/12/08 02:31:38;;;;;;;2.47;2.38;;;-3.90;99.90;;;;;;6042774;23;20045;-83
2021/12/08 02:48:04;;;;;;;2.60;2.40;;;-4.60;99.90;;;;;;6016266;23;20735;-83
2021/12/08 02:50:42;;;;;;;3.47;3.17;;;-4.80;99.90;;;;;;6023094;23;20026;-83
2021/12/08 02:53:13;;;;;;;2.95;2.78;;;-4.80;99.90;;;;;;6040407;23;20069;-83
2021/12/08 02:55:43;;;;;;;3.50;2.47;;;-4.80;99.90;;;;;;6014851;23;20027;-83
2021/12/08 02:58:12;;;;;;;3.13;2.92;;;-4.70;99.90;;;;;;6038091;23;21012;-82
2021/12/08 03:00:49;;;;;;;5.05;3.65;;;-4.50;99.90;;;;;;6016085;23;20022;-83
2021/12/08 03:03:17;;;;;;;2.25;2.10;;;-4.40;99.90;;;;;;6036472;23;20025;-83
2021/12/08 03:05:45;;;;;;;3.25;2.95;;;-4.30;99.90;;;;;;6068411;23;20019;-83
2021/12/08 03:08:15;;;;;;;3.28;3.08;;;-4.20;99.90;;;;;;6044030;23;20026;-83
2021/12/08 03:10:51;;;;;;;1.67;1.58;;;-4.10;99.90;;;;;;6066885;23;20026;-83
2021/12/08 03:13:28;;;;;;;2.10;2.00;;;-4.10;99.90;;;;;;6044599;23;20038;-82
2021/12/08 03:15:57;;;;;;;2.45;2.20;;;-4.10;99.90;;;;;;6021219;23;20023;-83
2021/12/08 03:18:32;;;;;;;2.95;2.75;;;-4.10;99.90;;;;;;6020972;23;20022;-82
2021/12/08 03:21:01;;;;;;;3.25;2.67;;;-4.20;99.90;;;;;;6020178;23;20018;-83
2021/12/08 03:23:46;;;;;;;4.30;3.65;;;-4.30;99.90;;;;;;6071504;23;20031;-83
2021/12/08 03:26:14;;;;;;;3.00;2.15;;;-4.40;99.90;;;;;;6020267;23;20325;-83
2021/12/08 03:28:56;;;;;;;2.97;2.75;;;-4.40;99.90;;;;;;6045356;23;20025;-83
2021/12/08 03:31:30;;;;;;;4.50;2.75;;;-4.40;99.90;;;;;;6020157;23;20023;-82
2021/12/08 03:33:58;;;;;;;2.67;2.20;;;-4.30;99.90;;;;;;6021067;23;20014;-83
2021/12/08 03:36:26;;;;;;;2.33;2.15;;;-4.50;99.90;;;;;;6044629;23;20014;-83
2021/12/08 03:38:54;;;;;;;3.10;2.80;;;-4.60;99.90;;;;;;6073591;23;20027;-82
2021/12/08 03:41:22;;;;;;;3.80;2.13;;;-4.70;99.90;;;;;;6020565;23;20447;-82
2021/12/08 03:43:51;;;;;;;2.15;2.03;;;-4.70;99.90;;;;;;6044662;23;20022;-83
2021/12/08 03:46:19;;;;;;;4.10;3.90;;;-4.50;99.90;;;;;;6044570;23;20030;-83
2021/12/08 03:48:49;;;;;;;3.20;2.83;;;-4.40;99.90;;;;;;6079311;23;20327;-83
2021/12/08 03:51:19;;;;;;;4.43;2.45;;;-4.40;99.90;;;;;;6020191;23;20034;-84
2021/12/08 03:53:47;;;;;;;2.63;2.42;;;-4.20;99.90;;;;;;6021477;23;20029;-84
2021/12/08 03:56:15;;;;;;;2.80;2.60;;;-4.20;99.90;;;;;;6043210;23;20338;-85
2021/12/08 03:58:43;;;;;;;3.33;3.08;;;-4.20;99.90;;;;;;6043853;23;20031;-85
2021/12/08 04:01:30;;;;;;;6.93;2.95;;;-4.20;99.90;;;;;;6044824;23;20026;-84
2021/12/08 04:04:50;;;;;;;2.88;2.45;;;-4.20;99.90;;;;;;6003040;23;20027;-84
2021/12/08 04:08:20;;;;;;;2.80;2.60;;;-4.10;99.90;;;;;;6014913;23;20033;-84
2021/12/08 04:11:25;;;;;;;2.92;2.75;;;-4.30;99.90;;;;;;6019997;23;20731;-85
2021/12/08 04:14:15;;;;;;;2.78;2.58;;;-4.40;99.90;;;;;;6015475;23;20446;-85
2021/12/08 04:17:06;;;;;;;4.20;2.50;;;-4.50;99.90;;;;;;6016389;23;20023;-85
2021/12/08 04:19:35;;;;;;;3.70;2.22;;;-4.40;99.90;;;;;;6018473;23;20034;-85
2021/12/08 04:22:13;;;;;;;3.03;2.83;;;-4.40;99.90;;;;;;5992097;23;20029;-85
2021/12/08 04:24:43;;;;;;;2.15;1.95;;;-4.30;99.90;;;;;;6016338;23;20019;-86
2021/12/08 04:27:17;;;;;;;3.53;3.03;;;-4.30;99.90;;;;;;6019217;23;20030;-86
2021/12/08 04:29:46;;;;;;;2.95;2.78;;;-4.30;99.90;;;;;;6015822;23;20019;-85
2021/12/08 04:32:16;;;;;;;6.85;2.80;;;-4.30;99.90;;;;;;5993203;23;20034;-85
2021/12/08 04:34:48;;;;;;;2.50;2.33;;;-4.20;99.90;;;;;;6047123;23;20037;-86
2021/12/08 04:37:24;;;;;;;2.80;1.83;;;-4.10;99.90;;;;;;6050726;23;20018;-86
2021/12/08 04:40:19;;;;;;;2.45;2.25;;;-4.00;99.90;;;;;;6039344;23;20084;-85
2021/12/08 04:45:39;;;;;;;4.07;2.25;;;-3.80;99.90;;;;;;6051407;23;20015;-85
2021/12/08 05:02:03;;;;;;;2.63;2.42;;;-3.50;99.90;;;;;;6050801;23;20014;-86
2021/12/08 05:10:16;;;;;;;1.90;1.77;;;-3.40;99.90;;;;;;6064045;23;20026;-86
2021/12/08 05:12:47;;;;;;;2.10;2.00;;;-3.30;99.90;;;;;;6016872;23;20465;-86
2021/12/08 05:15:32;;;;;;;2.17;1.95;;;-3.30;99.90;;;;;;6070079;23;20030;-86
2021/12/08 05:18:11;;;;;;;2.60;2.10;;;-3.30;99.90;;;;;;6016609;23;20351;-86
2021/12/08 05:21:02;;;;;;;2.05;1.95;;;-3.20;99.90;;;;;;6040577;23;20042;-86
2021/12/08 05:23:43;;;;;;;2.25;2.03;;;-3.20;99.90;;;;;;6043915;23;20042;-87
2021/12/08 05:26:15;;;;;;;2.40;2.30;;;-3.10;99.90;;;;;;6047598;23;20015;-87
2021/12/08 05:28:45;;;;;;;3.47;3.17;;;-3.00;99.90;;;;;;5994629;23;20026;-86
2021/12/08 05:31:21;;;;;;;2.75;2.50;;;-3.00;99.90;;;;;;6044355;23;20033;-84
2021/12/08 05:33:49;;;;;;;2.70;2.50;;;-3.00;99.90;;;;;;6050682;23;20011;-85
2021/12/08 05:36:21;;;;;;;3.87;3.57;;;-3.00;99.90;;;;;;6015812;23;20027;-84
2021/12/08 05:38:50;;;;;;;2.25;2.15;;;-3.00;99.90;;;;;;5993188;23;20022;-85
2021/12/08 05:41:35;;;;;;;5.15;2.63;;;-2.90;99.90;;;;;;5992985;23;20042;-89
2021/12/08 05:44:09;;;;;;;2.17;2.08;;;-2.90;99.90;;;;;;6001808;23;20031;-86
2021/12/08 05:46:42;;;;;;;2.60;2.35;;;-2.90;99.90;;;;;;6012034;23;20019;-84
2021/12/08 05:49:13;;;;;;;5.63;2.15;;;-2.90;99.90;;;;;;6039018;23;20474;-85
2021/12/08 05:51:50;;;;;;;3.33;2.83;;;-2.80;99.90;;;;;;6062018;23;20034;-84
2021/12/08 05:54:40;;;;;;;2.75;2.28;;;-2.80;99.90;;;;;;5993191;23;20026;-85
2021/12/08 05:58:00;;;;;;;3.47;2.92;;;-2.80;99.90;;;;;;6042960;23;20029;-85
2021/12/08 06:01:17;;;;;;;2.75;2.20;;;-2.80;99.90;;;;;;6015360;23;20031;-85
2021/12/08 06:03:49;;;;;;;2.80;2.58;;;-2.80;99.90;;;;;;6063858;23;20065;-84
2021/12/08 06:06:19;;;;;;;2.50;2.40;;;-2.80;99.90;;;;;;6044740;23;20026;-85
2021/12/08 06:08:48;;;;;;;2.58;2.38;;;-2.80;99.90;;;;;;6045293;23;20026;-85
2021/12/08 06:11:24;;;;;;;5.78;3.70;;;-2.80;99.90;;;;;;6072351;23;20485;-85
2021/12/08 06:13:59;;;;;;;4.30;2.72;;;-2.80;99.90;;;;;;6044424;23;20026;-84
2021/12/08 06:16:36;;;;;;;1.98;1.88;;;-2.80;99.90;;;;;;6031594;23;20693;-84
2021/12/08 06:19:07;;;;;;;5.47;2.75;;;-2.70;99.90;;;;;;6068627;23;20481;-84
2021/12/08 06:21:36;;;;;;;3.83;2.63;;;-2.70;99.90;;;;;;6020872;23;20018;-84
2021/12/08 06:24:07;;;;;;;2.40;2.30;;;-2.70;99.90;;;;;;6055937;23;20026;-85
2021/12/08 06:26:36;;;;;;;3.00;2.78;;;-2.60;99.90;;;;;;6074063;23;20033;-86
2021/12/08 06:33:09;;;;;;;2.72;1.98;;;-2.70;99.90;;;;;;5930581;24;20020;-86
2021/12/08 06:36:18;;;;;;;2.67;2.47;;;-2.60;99.90;;;;;;5921757;23;20029;-88
2021/12/08 06:40:20;;;;;;;2.42;2.28;;;-2.60;99.90;;;;;;5847352;24;20037;-87
2021/12/08 07:08:59;;;;;;;;;;;;;;;;;;;;;
2021/12/08 07:13:31;;;;;;;;;;;;;;;;;;;;;
2021/12/08 07:18:03;;;;;;;4.10;2.85;;;-2.40;99.90;;;;;;5920997;24;20021;-92
2021/12/08 07:20:47;;;;;;;5.57;3.10;;;-2.40;99.90;;;;;;5917287;24;20489;-83
2021/12/08 07:23:36;;;;;;;3.28;3.08;;;-2.30;99.90;;;;;;6024554;23;20030;-80
2021/12/08 07:26:15;;;;;;;2.78;2.50;;;-2.30;99.90;;;;;;6060999;23;20019;-82
2021/12/08 07:28:44;;;;;;;3.33;3.10;;;-2.30;99.90;;;;;;6049274;23;20018;-81
2021/12/08 07:31:18;;;;;;;3.92;3.63;;;-2.20;99.90;;;;;;6043129;23;20328;-81
2021/12/08 07:33:47;;;;;;;3.63;3.25;;;-2.20;99.90;;;;;;6049686;23;20065;-81
2021/12/08 07:36:18;;;;;;;3.53;2.85;;;-2.10;99.90;;;;;;6064187;23;20029;-81
2021/12/08 07:38:51;;;;;;;3.30;3.00;;;-2.10;99.90;;;;;;6044985;23;20023;-81
2021/12/08 07:41:27;;;;;;;4.82;3.03;;;-2.20;99.90;;;;;;6048419;23;20042;-81
2021/12/08 07:43:57;;;;;;;3.08;2.80;;;-2.20;99.90;;;;;;6040284;23;20034;-81
2021/12/08 07:46:34;;;;;;;3.97;3.67;;;-2.20;99.90;;;;;;6039105;23;20027;-84
2021/12/08 07:49:12;;;;;;;3.88;3.60;;;-2.10;99.90;;;;;;6025287;23;20015;-83
2021/12/08 07:51:45;;;;;;;3.35;3.05;;;-2.10;99.90;;;;;;6038693;23;20328;-83
2021/12/08 07:54:15;;;;;;;9.38;6.35;;;-2.00;99.90;;;;;;6015625;23;20348;-83
2021/12/08 07:56:46;;;;;;;3.92;3.22;;;-1.90;99.90;;;;;;6015582;23;20023;-83
2021/12/08 07:59:17;;;;;;;3.90;3.15;;;-1.80;99.90;;;;;;6043995;23;20053;-83
2021/12/08 08:01:49;;;;;;;5.80;3.92;;;-1.90;99.90;;;;;;6074493;23;20019;-83
2021/12/08 08:04:20;;;;;;;4.03;3.40;;;-1.80;99.90;;;;;;6038656;23;20030;-83
2021/12/08 08:06:58;;;;;;;3.50;3.20;;;-1.80;99.90;;;;;;6045951;23;20825;-83
2021/12/08 08:09:34;;;;;;;4.00;3.42;;;-1.80;99.90;;;;;;6041715;23;20438;-83
2021/12/08 08:12:05;;;;;;;6.72;3.30;;;-1.70;99.90;;;;;;6041581;23;20027;-83
2021/12/08 08:14:39;;;;;;;3.17;2.97;;;-1.60;99.90;;;;;;6073370;23;20474;-83
2021/12/08 08:17:11;;;;;;;4.25;4.03;;;-1.40;99.90;;;;;;6041269;23;20387;-83
2021/12/08 08:19:45;;;;;;;3.03;2.90;;;-1.20;99.90;;;;;;6043675;23;20049;-83
2021/12/08 08:22:22;;;;;;;4.45;3.08;;;-1.10;99.90;;;;;;6047989;23;20350;-83
2021/12/08 08:24:53;;;;;;;3.45;3.15;;;-1.00;99.90;;;;;;6051282;23;20022;-84
2021/12/08 08:27:23;;;;;;;3.20;2.97;;;-0.90;99.90;;;;;;5992671;23;20030;-84
2021/12/08 08:29:54;;;;;;;2.90;2.50;;;-0.70;99.90;;;;;;5993837;23;20023;-83
2021/12/08 08:32:29;;;;;;;4.22;3.72;;;-0.60;99.90;;;;;;6040785;23;20034;-84
2021/12/08 08:35:26;;;;;;;7.70;7.07;;;-0.50;99.90;;;;;;6071966;23;20022;-84
2021/12/08 08:37:54;;;;;;;8.05;2.78;;;-0.40;99.90;;;;;;6016803;23;20018;-84
2021/12/08 08:40:42;;;;;;;3.00;2.65;;;-0.60;99.90;;;;;;5994638;23;20022;-84
2021/12/08 08:43:11;;;;;;;3.05;2.75;;;-0.60;99.90;;;;;;6022032;23;20023;-84
2021/12/08 08:46:04;;;;;;;4.15;3.13;;;-0.50;99.90;;;;;;6017190;23;20034;-83
2021/12/08 08:48:40;;;;;;;3.35;3.15;;;-0.60;99.90;;;;;;6008269;23;20031;-84
2021/12/08 08:51:17;;;;;;;4.15;3.47;;;-0.70;99.90;;;;;;6069965;23;20023;-84
2021/12/08 08:53:49;;;;;;;3.28;2.97;;;-0.60;99.90;;;;;;6051298;23;20033;-84
2021/12/08 08:56:25;;;;;;;4.03;3.65;;;-0.70;99.90;;;;;;6015533;23;20031;-84
2021/12/08 08:59:00;;;;;;;4.00;3.47;;;-0.70;99.90;;;;;;5994959;23;20031;-83
2021/12/08 09:01:33;;;;;;;5.93;3.65;;;-0.60;99.90;;;;;;5994494;23;20026;-84
2021/12/08 09:04:07;;;;;;;3.97;3.63;;;-0.60;99.90;;;;;;5998024;23;20022;-84
2021/12/08 09:06:39;;;;;;;3.08;2.88;;;-0.70;99.90;;;;;;6021531;23;20057;-84
2021/12/08 09:09:24;;;;;;;4.82;3.60;;;-0.60;99.90;;;;;;6046196;23;20025;-84
2021/12/08 09:12:04;;;;;;;6.95;3.40;;;-0.70;99.90;;;;;;6070599;23;20029;-83
2021/12/08 09:14:49;;;;;;;2.63;2.38;;;-0.60;99.90;;;;;;6045246;23;20029;-84
2021/12/08 09:17:34;;;;;;;4.65;3.97;;;-0.80;99.90;;;;;;6079195;23;20025;-83
2021/12/08 09:20:35;;;;;;;2.63;2.42;;;-0.80;99.90;;;;;;6093440;23;20034;-83
2021/12/08 09:23:30;;;;;;;3.83;3.45;;;-0.70;99.90;;;;;;6073274;23;20477;-84
2021/12/08 09:26:08;;;;;;;3.22;3.03;;;-0.60;99.90;;;;;;6067946;23;20029;-84
2021/12/08 09:28:55;;;;;;;4.10;3.05;;;-0.40;99.90;;;;;;6045301;23;20023;-84
2021/12/08 09:31:37;;;;;;;3.28;2.97;;;-0.20;99.90;;;;;;6103211;23;20366;-84
2021/12/08 09:34:20;;;;;;;3.40;3.20;;;-0.10;99.90;;;;;;6068503;23;20023;-84
2021/12/08 09:36:57;;;;;;;5.25;3.42;;;0.00;99.90;;;;;;6102552;23;20469;-84
2021/12/08 09:39:31;;;;;;;4.60;4.03;;;0.00;99.90;;;;;;6120484;23;20019;-84
2021/12/08 09:42:11;;;;;;;4.40;4.03;;;0.10;99.90;;;;;;6091712;23;20022;-84
2021/12/08 09:44:44;;;;;;;7.55;4.30;;;0.10;99.90;;;;;;6104481;23;20026;-84
2021/12/08 09:47:12;;;;;;;4.68;4.28;;;0.30;99.90;;;;;;6068222;23;20022;-84
2021/12/08 09:49:42;;;;;;;4.43;4.05;;;0.20;99.90;;;;;;6103265;23;20434;-84
2021/12/08 09:52:10;;;;;;;4.22;3.92;;;0.10;99.90;;;;;;6093831;23;20026;-84
2021/12/08 09:54:39;;;;;;;5.47;4.13;;;0.30;99.90;;;;;;6068807;23;20041;-84
2021/12/08 09:57:11;;;;;;;6.47;3.70;;;0.20;99.90;;;;;;6092221;23;20418;-84
2021/12/08 09:59:46;;;;;;;7.18;4.72;;;0.00;99.90;;;;;;6095464;23;20027;-84
2021/12/08 10:02:32;;;;;;;4.57;3.40;;;0.00;99.90;;;;;;6044359;23;20033;-85
2021/12/08 10:05:11;;;;;;;3.03;2.83;;;0.10;99.90;;;;;;6045207;23;20496;-84
2021/12/08 10:07:40;;;;;;;3.88;3.58;;;0.40;99.90;;;;;;6070780;23;20030;-85
2021/12/08 10:10:13;;;;;;;5.50;5.10;;;0.60;99.90;;;;;;6077623;23;20326;-84
2021/12/08 10:12:42;;;;;;;3.78;3.47;;;0.60;99.90;;;;;;6021504;23;20018;-84
2021/12/08 10:15:14;;;;;;;4.25;4.00;;;0.60;99.90;;;;;;6068109;23;20018;-84
2021/12/08 10:17:43;;;;;;;6.15;4.30;;;0.50;99.90;;;;;;6044970;23;20029;-84
2021/12/08 10:20:27;;;;;;;4.63;4.22;;;0.50;99.90;;;;;;6068756;23;20019;-84
2021/12/08 10:23:09;;;;;;;5.22;4.63;;;0.50;99.90;;;;;;6073716;23;20026;-85
2021/12/08 10:25:57;;;;;;;3.90;3.17;;;0.60;99.90;;;;;;6044707;23;20030;-85
2021/12/08 10:28:41;;;;;;;3.10;2.80;;;0.70;99.90;;;;;;5997469;23;20712;-84
2021/12/08 10:31:14;;;;;;;4.07;3.25;;;0.90;99.90;;;;;;6043577;23;20023;-84
2021/12/08 10:36:50;;;;;;;5.97;4.07;;;0.90;99.90;;;;;;6067317;23;20303;-84
2021/12/08 10:39:29;;;;;;;2.90;2.70;;;0.80;99.90;;;;;;6067745;23;20490;-84
2021/12/08 10:42:03;;;;;;;4.45;4.07;;;0.80;99.90;;;;;;6043931;23;20029;-83
2021/12/08 10:45:15;;;;;;;6.07;4.18;;;0.80;99.90;;;;;;6068747;23;20050;-83
2021/12/08 10:47:55;;;;;;;5.15;4.32;;;0.90;99.90;;;;;;6044490;23;20633;-83
2021/12/08 10:56:12;;;;;;;4.43;4.03;;;1.10;99.90;;;;;;6067200;23;20022;-83
2021/12/08 10:58:47;;;;;;;7.07;3.88;;;1.10;99.90;;;;;;6099775;23;20472;-83
2021/12/08 11:01:26;;;;;;;8.88;3.20;;;1.20;99.90;;;;;;6103215;23;20018;-83
2021/12/08 11:04:08;;;;;;;3.53;3.33;;;1.20;99.90;;;;;;6094528;23;20030;-83
2021/12/08 11:06:38;;;;;;;3.92;3.67;;;1.20;99.90;;;;;;6067861;23;20033;-83
2021/12/08 11:09:16;;;;;;;3.10;2.88;;;1.00;99.90;;;;;;6078324;23;20018;-83
2021/12/08 11:11:52;;;;;;;2.83;2.60;;;0.80;99.90;;;;;;6068976;23;20033;-82
2021/12/08 11:14:46;;;;;;;4.80;3.80;;;0.60;99.90;;;;;;6070152;23;20350;-82
2021/12/08 11:17:35;;;;;;;6.03;5.55;;;0.50;99.90;;;;;;6102472;23;20018;-83
2021/12/08 11:20:31;;;;;;;4.35;3.20;;;0.40;99.90;;;;;;6042334;23;20023;-83
2021/12/08 11:23:14;;;;;;;4.13;3.70;;;0.40;99.90;;;;;;6067819;23;20022;-83
2021/12/08 11:26:43;;;;;;;3.28;3.05;;;0.60;99.90;;;;;;6046715;23;20026;-83
2021/12/08 11:29:29;;;;;;;5.10;3.75;;;0.70;99.90;;;;;;6039674;23;20022;-82
2021/12/08 11:32:10;;;;;;;4.72;3.10;;;0.70;99.90;;;;;;6047191;23;20458;-82
2021/12/08 11:34:47;;;;;;;4.97;3.53;;;0.80;99.90;;;;;;6069581;23;20015;-83
2021/12/08 11:37:24;;;;;;;3.05;2.85;;;1.00;99.90;;;;;;6069773;23;20014;-83
2021/12/08 11:40:00;;;;;;;3.80;3.50;;;1.10;99.90;;;;;;6067529;23;20030;-82
2021/12/08 11:42:35;;;;;;;4.53;3.70;;;1.20;99.90;;;;;;6102078;23;20033;-83
2021/12/08 11:45:14;;;;;;;2.80;2.53;;;1.20;99.90;;;;;;6097066;23;20025;-83
2021/12/08 11:47:43;;;;;;;5.07;2.80;;;1.20;99.90;;;;;;6098211;23;20037;-81
2021/12/08 11:50:21;;;;;;;1.90;1.80;;;1.20;99.90;;;;;;6103179;23;20015;-81
2021/12/08 11:52:54;;;;;;;2.60;2.38;;;1.20;99.90;;;;;;6105684;23;20442;-81
2021/12/08 11:55:25;;;;;;;2.60;1.77;;;1.30;99.90;;;;;;6097230;23;20053;-81
2021/12/08 11:57:58;;;;;;;2.47;2.28;;;1.20;99.90;;;;;;6078730;23;20015;-81
2021/12/08 12:00:35;;;;;;;3.20;2.83;;;1.30;99.90;;;;;;6045426;23;20443;-81
2021/12/08 12:03:07;;;;;;;3.42;3.20;;;1.20;99.90;;;;;;6045483;23;20027;-81
2021/12/08 12:05:36;;;;;;;;;;;1.30;99.90;;;;;;6072600;23;20030;-81
2021/12/08 12:08:08;;;;;;;2.75;2.08;;;1.40;99.90;;;;;;6068840;23;19921;-81
2021/12/08 12:10:39;;;;;;;2.88;2.08;;;1.40;99.90;;;;;;6089163;23;20023;-81
2021/12/08 12:16:28;;;;;;;2.42;2.33;;;1.60;99.90;;;;;;6017449;23;20019;-81
2021/12/08 12:19:01;;;;;;;9.93;6.00;;;1.60;99.90;;;;;;6039950;23;20039;-79
2021/12/08 12:21:58;;;;;;;5.78;4.40;;;1.40;99.90;;;;;;6075722;23;20014;-80
2021/12/08 12:24:51;;;;;;;4.68;3.95;;;1.20;99.90;;;;;;6072879;23;20451;-80
2021/12/08 12:27:37;;;;;;;6.93;4.97;;;1.00;99.90;;;;;;6014579;23;20033;-82
2021/12/08 12:30:27;;;;;;;5.55;5.05;;;0.80;99.90;;;;;;6060989;23;20015;-82
2021/12/08 12:32:59;;;;;;;4.87;3.60;;;0.80;99.90;;;;;;6019185;23;20015;-82
2021/12/08 12:35:32;;;;;;;18.02;15.68;;;0.70;99.90;;;;;;5992828;23;20374;-82
2021/12/08 12:38:11;;;;;;;21.98;15.52;;;0.80;99.90;;;;;;6040455;23;20344;-82
2021/12/08 12:40:50;;;;;;;8.88;6.28;;;0.90;99.90;;;;;;5993553;23;20027;-79
2021/12/08 12:43:35;;;;;;;4.70;3.97;;;0.80;99.90;;;;;;6039708;23;20027;-82
2021/12/08 12:46:13;;;;;;;5.28;4.80;;;0.90;99.90;;;;;;6040282;23;20039;-82
2021/12/08 12:48:51;;;;;;;5.75;5.25;;;0.90;99.90;;;;;;6074568;23;20022;-82
2021/12/08 12:51:23;;;;;;;5.68;3.92;;;0.80;99.90;;;;;;6069192;23;20031;-81
2021/12/08 12:53:56;;;;;;;5.55;5.07;;;0.80;99.90;;;;;;6075062;23;20014;-82
2021/12/08 12:56:34;;;;;;;6.10;4.30;;;0.70;99.90;;;;;;6048338;23;20018;-80
2021/12/08 12:59:17;;;;;;;4.80;3.97;;;0.60;99.90;;;;;;6039716;23;20027;-81
2021/12/08 13:02:14;;;;;;;6.07;4.43;;;0.60;99.90;;;;;;6075439;23;20029;-81
2021/12/08 13:05:08;;;;;;;4.90;3.45;;;0.60;99.90;;;;;;6029487;23;20023;-81
2021/12/08 13:07:56;;;;;;;;;;;0.70;99.90;;;;;;6041287;23;20031;-82
2021/12/08 13:10:41;;;;;;;5.20;4.00;;;0.70;99.90;;;;;;6069155;23;19921;-81
2021/12/08 13:13:23;;;;;;;8.38;5.78;;;0.80;99.90;;;;;;6040979;23;20026;-82
2021/12/08 13:15:53;;;;;;;5.55;4.70;;;0.90;99.90;;;;;;6066488;23;20192;-84
2021/12/08 13:18:23;;;;;;;4.63;4.07;;;0.90;99.90;;;;;;6073591;23;20027;-83
2021/12/08 13:21:16;;;;;;;4.30;4.00;;;0.80;99.90;;;;;;6042364;23;20023;-86
2021/12/08 13:24:50;;;;;;;3.35;3.15;;;0.70;99.90;;;;;;5969419;24;20380;-84
2021/12/08 13:32:37;;;;;;;6.00;5.40;;;0.90;99.90;;;;;;5961358;24;20028;-85
2021/12/08 13:35:53;;;;;;;6.55;4.60;;;1.20;99.90;;;;;;5999533;23;20478;-82
2021/12/08 13:38:22;;;;;;;5.28;4.85;;;1.30;99.90;;;;;;6073360;23;20030;-84
2021/12/08 13:40:53;;;;;;;6.20;5.68;;;1.10;99.90;;;;;;6014321;23;20015;-83
2021/12/08 13:43:32;;;;;;;5.75;5.18;;;1.00;99.90;;;;;;6039922;23;20046;-83
2021/12/08 13:46:00;;;;;;;5.97;5.47;;;0.90;99.90;;;;;;6074373;23;20414;-83
2021/12/08 13:48:28;;;;;;;5.25;4.72;;;0.80;99.90;;;;;;6075361;23;20676;-85
2021/12/08 13:51:17;;;;;;;5.10;4.60;;;0.80;99.90;;;;;;6020676;23;20023;-84
2021/12/08 13:54:05;;;;;;;6.05;5.45;;;0.80;99.90;;;;;;6049616;23;20029;-84
2021/12/08 13:56:43;;;;;;;4.53;4.15;;;0.80;99.90;;;;;;6070634;23;20031;-84
2021/12/08 13:59:11;;;;;;;5.45;4.57;;;0.80;99.90;;;;;;6063684;23;20027;-84
2021/12/08 14:01:39;;;;;;;5.75;5.20;;;0.70;99.90;;;;;;6075347;23;20022;-84
2021/12/08 14:04:17;;;;;;;4.75;4.35;;;0.70;99.90;;;;;;6040701;23;20473;-83
2021/12/08 14:06:52;;;;;;;5.18;4.78;;;0.70;99.90;;;;;;6038636;23;20026;-84
2021/12/08 14:09:48;;;;;;;4.30;3.95;;;0.70;99.90;;;;;;6016765;23;20018;-83
2021/12/08 14:12:16;;;;;;;7.03;4.78;;;0.70;99.90;;;;;;6061954;23;20027;-85
2021/12/08 14:14:59;;;;;;;7.05;5.45;;;0.80;99.90;;;;;;6046574;23;20023;-84
2021/12/08 14:17:30;;;;;;;6.88;6.20;;;0.90;99.90;;;;;;6039902;23;20019;-84
2021/12/08 14:19:58;;;;;;;4.82;3.78;;;0.90;99.90;;;;;;6065304;23;20027;-84
2021/12/08 14:22:40;;;;;;;5.15;4.60;;;0.90;99.90;;;;;;6070101;23;20042;-82
2021/12/08 14:25:08;;;;;;;7.18;5.15;;;1.00;99.90;;;;;;6075047;23;20335;-81
2021/12/08 14:27:36;;;;;;;10.00;5.30;;;0.90;99.90;;;;;;6066809;23;20031;-81
2021/12/08 14:30:04;;;;;;;5.43;4.93;;;0.90;99.90;;;;;;6038694;23;20026;-82
2021/12/08 14:32:31;;;;;;;7.38;6.18;;;0.80;99.90;;;;;;6039701;23;20026;-82
2021/12/08 14:35:08;;;;;;;6.72;4.57;;;0.80;99.90;;;;;;6068673;23;20045;-83
2021/12/08 14:37:36;;;;;;;7.28;4.38;;;0.60;99.90;;;;;;6074795;23;20014;-82
2021/12/08 14:40:10;;;;;;;7.13;4.55;;;0.60;99.90;;;;;;6064015;23;20057;-82
2021/12/08 14:42:38;;;;;;;10.75;4.88;;;0.60;99.90;;;;;;6070953;23;20015;-82
2021/12/08 14:45:10;;;;;;;5.85;5.28;;;0.50;99.90;;;;;;6016447;23;20019;-82
2021/12/08 14:47:47;;;;;;;11.05;7.85;;;0.50;99.90;;;;;;6067734;23;20029;-83
2021/12/08 14:50:20;;;;;;;5.70;4.85;;;0.50;99.90;;;;;;6015854;23;20018;-84
2021/12/08 14:52:49;;;;;;;13.77;6.35;;;0.50;99.90;;;;;;6025444;23;20447;-81
2021/12/08 14:55:21;;;;;;;5.22;4.70;;;0.50;99.90;;;;;;6042822;23;20023;-82
2021/12/08 14:57:55;;;;;;;5.68;5.18;;;0.50;99.90;;;;;;6049755;23;20010;-82
2021/12/08 15:00:29;;;;;;;4.95;4.53;;;0.50;99.90;;;;;;6065115;23;20022;-82
2021/12/08 15:03:13;;;;;;;6.20;4.78;;;0.60;99.90;;;;;;6069475;23;20046;-82
2021/12/08 15:05:47;;;;;;;7.70;6.07;;;0.50;99.90;;;;;;6074824;23;20011;-81
2021/12/08 15:08:18;;;;;;;6.18;5.55;;;0.50;99.90;;;;;;6064706;23;20455;-81
2021/12/08 15:10:47;;;;;;;6.82;6.22;;;0.40;99.90;;;;;;6069826;23;20038;-81